Detall de PIREP

Printer-friendly versionPDF version

[2008/11/30 14:31:00]
Flight IATA:CT0001
Pilot Number:041
Company ICAO:CAT
Aircraft Type:F50/A
PAX:37
Departing Airport: LEAL
Destination Airport: LEBL
Alternate Airport:LERS
Online: VATSIM
Route:SOPET1F N609 CASIM N609 MATEX1T
Flight Level:FL140
No Slew and time accel
No pause
Crash detect
Detect pilot in Cockpit between each 30 and 45 minutes
14:31 Zero fuel Weight: 39226 Lbs, Fuel Weight: 5399 Lbs
14:31 VATSIM:LEAL 301400Z 22007KT 200V260 9999 FEW025 09/05 Q1002 NOSIG
14:31 VATSIM:LEBL 301400Z 32005KT 9999 SCT025 SCT055 11/00 Q0997 NOSIG
14:32 VOICE CATALONIAN
14:35 Parking Brakes off
14:46 Take-off
14:46 Take off Weight: 44510 Lbs
14:46 Wind: 223º @ 006 Knots Heading: 276º
14:46 POS N38º 16´ 57´´ W000º 33´ 41´´
14:46 Gear Up: 160 Knots
14:46 Flaps:1 at 160 Knots
14:46 Flaps:0 at 189 Knots
15:01 Wind:278º@015 Knots Heading: 046º Ground Speed: 257 Knots Altitu
de 10475 ft
15:04 TOC
15:04 Fuel Weight: 4736 Lb
15:16 Wind:294º@015 Knots Heading: 346º Ground Speed: 253 Knots Altitude 13608 ft
15:31 Wind:270º@018 Knots Heading: 013º Ground Speed: 265 Knots Altitude 13569 ft
15:33 TOD
15:33 Fuel Weight: 3996 Lb
15:46 Wind:266º@016 Knots Heading: 052º Ground Speed: 260 Knots Altitude 6000 ft
16:00 Flaps:1 at 208 Knots
16:01 Wind:330º@005 Knots Heading: 238º Ground Speed: 199 Knots Altitude 1469 ft
16:01 Flaps:2 at 194 Knots
16:01 Gear Down: 188 Knots
16:01 Flaps:3 at 178 Knots
16:01 Flaps:4 at 152 Knots
16:01 Flaps:5 at 125 Knots
16:02 Flaps:4 at 119 Knots
16:02 TouchDown:Rate -391 ft/min Speed: 105 Knots
16:03 VATSIM:LEBL 301530Z 33006KT 9999 SCT025 10/M00 Q0998 NOSIG
16:03 Land
16:03 Wind:322º@003 Knots
16:03 Heading: 245º
16:03 Flight Duration: 01:17
16:03 Landing Weight: 42606 Lbs
16:03 POS N41º 18´ 05´´ E002º 0
5´ 29´´
16:08 Parking brakes on
16:08 Block to Block Duration: 01:33
16:08 Final Fuel: 3346 Lbls
16:08 Spent Fuel: 2052 Lbls
16:08 Flight Length: 321 NM
16:08 TOD Land Length: 121 NM

Exportar CSV

Powered by Drupal - Modified by Danger4k